createdAt,value
2019-02-28T00:00:11.263Z,7.50
2019-02-28T00:06:22.116Z,7.50
2019-02-28T00:09:25.619Z,7.50
2019-02-28T00:16:05.774Z,7.30
2019-02-28T00:19:07.094Z,7.30
2019-02-28T00:22:11.348Z,7.30
2019-02-28T00:25:11.395Z,7.30
2019-02-28T00:28:12.783Z,7.20
2019-02-28T00:31:15.327Z,7.20
2019-02-28T00:34:16.323Z,7.20
2019-02-28T00:37:17.779Z,7.10
2019-02-28T00:40:19.027Z,7.10
2019-02-28T00:43:18.595Z,7.00
2019-02-28T00:46:19.887Z,6.90
2019-02-28T00:52:47.359Z,6.80
2019-02-28T00:55:48.403Z,6.90
2019-02-28T00:58:48.907Z,6.90
2019-02-28T01:01:50.451Z,6.80
2019-02-28T01:04:51.890Z,6.80
2019-02-28T01:11:52.477Z,6.70
2019-02-28T01:14:53.790Z,6.70
2019-02-28T01:17:57.141Z,6.60
2019-02-28T01:20:56.907Z,6.60
2019-02-28T01:24:00.528Z,6.60
2019-02-28T01:34:04.704Z,6.50
2019-02-28T01:37:05.995Z,6.40
2019-02-28T01:40:06.603Z,6.50
2019-02-28T01:43:05.910Z,6.50
2019-02-28T01:46:06.982Z,6.50
2019-02-28T01:52:15.895Z,6.30
2019-02-28T01:55:16.382Z,6.40
2019-02-28T01:58:18.142Z,6.50
2019-02-28T02:01:19.475Z,6.70
2019-02-28T02:04:20.829Z,7.00
2019-02-28T02:07:21.443Z,7.20
2019-02-28T02:10:22.895Z,7.30
2019-02-28T02:17:23.755Z,7.10
2019-02-28T02:20:26.280Z,7.00
2019-02-28T02:23:27.511Z,7.10
2019-02-28T02:26:29.044Z,7.20
2019-02-28T02:29:32.512Z,7.20
2019-02-28T02:32:37.464Z,7.10
2019-02-28T02:35:42.231Z,7.00
2019-02-28T02:42:18.268Z,6.80
2019-02-28T02:48:29.538Z,6.80
2019-02-28T02:51:31.162Z,6.90
2019-02-28T02:54:32.367Z,7.20
2019-02-28T02:57:33.872Z,7.20
2019-02-28T03:13:44.179Z,6.30
2019-02-28T03:16:44.249Z,6.30
2019-02-28T03:19:44.850Z,6.30
2019-02-28T03:22:44.523Z,6.20
2019-02-28T03:25:53.036Z,6.10
2019-02-28T03:29:07.950Z,6.00
2019-02-28T03:32:15.265Z,5.90
2019-02-28T03:35:24.057Z,5.90
2019-02-28T03:38:25.835Z,5.90
2019-02-28T03:41:26.351Z,5.80
2019-02-28T03:44:27.463Z,5.80
2019-02-28T03:47:28.686Z,5.80
2019-02-28T03:53:56.917Z,5.50
2019-02-28T03:56:58.579Z,5.50
2019-02-28T04:00:00.229Z,5.50
2019-02-28T04:03:01.706Z,5.50
2019-02-28T04:09:11.960Z,5.50
2019-02-28T04:12:11.787Z,5.40
2019-02-28T04:15:12.247Z,5.30
2019-02-28T04:18:13.375Z,5.20
2019-02-28T04:21:15.011Z,5.30
2019-02-28T04:24:16.287Z,5.30
2019-02-28T04:27:17.446Z,5.30
2019-02-28T04:30:17.888Z,5.40
2019-02-28T04:33:19.768Z,5.60
2019-02-28T04:36:20.683Z,5.80
2019-02-28T04:39:40.623Z,5.90
2019-02-28T04:45:51.731Z,6.00
2019-02-28T04:48:53.391Z,6.00
2019-02-28T04:55:08.517Z,6.00
2019-02-28T04:57:56.817Z,6.00
2019-02-28T05:00:44.540Z,6.20
2019-02-28T05:03:32.969Z,6.20
2019-02-28T05:06:21.830Z,6.40
2019-02-28T05:09:10.764Z,6.50
2019-02-28T05:11:59.427Z,6.60
2019-02-28T05:14:47.694Z,6.70
2019-02-28T05:17:35.658Z,6.60
2019-02-28T05:20:24.174Z,6.50
2019-02-28T05:23:12.397Z,6.40
2019-02-28T05:26:00.038Z,6.40
2019-02-28T05:28:48.487Z,6.60
2019-02-28T05:31:36.422Z,6.70
2019-02-28T05:34:24.328Z,6.70
2019-02-28T05:37:13.192Z,6.80
2019-02-28T05:40:05.625Z,6.80
2019-02-28T05:42:54.609Z,6.90
2019-02-28T05:45:40.843Z,7.00
2019-02-28T05:48:29.368Z,7.00
2019-02-28T05:51:17.771Z,7.00
2019-02-28T05:54:05.899Z,7.10
2019-02-28T05:56:53.874Z,7.00
2019-02-28T05:59:42.311Z,7.00
2019-02-28T06:02:30.648Z,7.00
2019-02-28T06:05:19.425Z,7.20
2019-02-28T06:08:07.639Z,7.20
2019-02-28T06:10:56.077Z,7.20
2019-02-28T06:13:45.076Z,7.40
2019-02-28T06:16:33.023Z,7.30
2019-02-28T06:19:20.924Z,7.20
2019-02-28T06:22:09.434Z,7.40
2019-02-28T06:24:57.035Z,7.40
2019-02-28T06:27:49.125Z,7.40
2019-02-28T06:30:34.992Z,7.40
2019-02-28T06:33:22.571Z,7.40
2019-02-28T06:36:10.707Z,7.50
2019-02-28T06:38:59.201Z,7.50
2019-02-28T06:41:46.770Z,7.50
2019-02-28T06:44:35.000Z,7.60
2019-02-28T06:47:23.171Z,7.60
2019-02-28T06:50:12.979Z,7.70
2019-02-28T06:53:02.154Z,7.70
2019-02-28T06:55:50.688Z,7.70
2019-02-28T06:58:38.907Z,7.80
2019-02-28T07:01:26.889Z,7.90
2019-02-28T07:04:15.507Z,7.90
2019-02-28T07:07:03.738Z,8.00
2019-02-28T07:09:51.681Z,8.00
2019-02-28T07:12:39.459Z,8.00
2019-02-28T07:15:27.779Z,8.10
2019-02-28T07:18:18.888Z,8.20
2019-02-28T07:21:07.882Z,8.20
2019-02-28T07:23:55.386Z,8.30
2019-02-28T07:26:43.570Z,8.30
2019-02-28T07:29:32.171Z,8.40
2019-02-28T07:32:20.698Z,8.40
2019-02-28T07:35:09.044Z,8.50
2019-02-28T07:37:57.647Z,8.60
2019-02-28T07:40:49.445Z,8.80
2019-02-28T07:43:35.334Z,9.00
2019-02-28T07:46:24.787Z,9.50
2019-02-28T07:49:12.975Z,9.90
2019-02-28T07:52:00.796Z,10.30
2019-02-28T07:54:51.856Z,10.40
2019-02-28T07:57:38.424Z,10.40
2019-02-28T08:00:27.034Z,10.30
2019-02-28T08:03:14.665Z,10.40
2019-02-28T08:06:04.746Z,10.60
2019-02-28T08:08:53.018Z,10.00
2019-02-28T08:11:41.375Z,9.70
2019-02-28T08:14:29.133Z,9.60
2019-02-28T08:17:16.784Z,9.80
2019-02-28T08:20:05.792Z,10.30
2019-02-28T08:22:56.552Z,10.70
2019-02-28T08:25:43.663Z,10.90
2019-02-28T08:28:35.796Z,11.00
2019-02-28T08:31:21.723Z,11.00
2019-02-28T08:34:09.227Z,11.20
2019-02-28T08:36:57.616Z,11.30
2019-02-28T08:39:45.686Z,11.50
2019-02-28T08:42:38.623Z,11.60
2019-02-28T08:45:24.103Z,11.80
2019-02-28T08:48:12.791Z,12.00
2019-02-28T08:51:01.351Z,12.50
2019-02-28T08:53:51.340Z,13.20
2019-02-28T08:56:40.256Z,14.30
2019-02-28T08:59:28.440Z,15.30
2019-02-28T09:02:18.290Z,15.50
2019-02-28T09:05:06.765Z,15.80
2019-02-28T09:07:55.078Z,15.80
2019-02-28T09:10:47.000Z,15.30
2019-02-28T09:13:33.480Z,15.70
2019-02-28T09:16:22.044Z,15.00
2019-02-28T09:19:10.301Z,15.00
2019-02-28T09:21:59.297Z,15.00
2019-02-28T09:24:47.676Z,13.70
2019-02-28T09:27:38.894Z,13.50
2019-02-28T09:30:29.722Z,13.50
2019-02-28T09:33:19.367Z,13.80
2019-02-28T09:36:08.135Z,14.10
2019-02-28T09:38:57.256Z,14.60
2019-02-28T09:41:45.747Z,14.60
2019-02-28T09:44:33.639Z,14.90
2019-02-28T09:47:23.372Z,15.70
2019-02-28T09:50:14.464Z,16.80
2019-02-28T09:53:02.155Z,17.90
2019-02-28T09:55:50.611Z,18.20
2019-02-28T09:58:39.017Z,18.00
2019-02-28T10:01:26.789Z,17.40
2019-02-28T10:04:15.061Z,17.30
2019-02-28T10:07:03.041Z,18.00
2019-02-28T10:09:51.593Z,18.20
2019-02-28T10:12:43.094Z,18.50
2019-02-28T10:15:29.117Z,17.60
2019-02-28T10:18:17.864Z,17.20
2019-02-28T10:21:06.487Z,17.90
2019-02-28T10:23:56.889Z,18.30
2019-02-28T10:26:44.811Z,17.90
2019-02-28T10:29:33.439Z,18.00
2019-02-28T10:32:21.535Z,18.40
2019-02-28T10:35:10.328Z,19.00
2019-02-28T10:37:59.042Z,17.90
2019-02-28T10:40:49.297Z,17.00
2019-02-28T10:43:37.043Z,16.70
2019-02-28T10:46:25.584Z,16.70
2019-02-28T10:49:13.720Z,17.20
2019-02-28T10:52:02.553Z,17.80
2019-02-28T10:54:50.164Z,18.80
2019-02-28T10:57:40.698Z,18.00
2019-02-28T11:00:32.773Z,17.70
2019-02-28T11:03:20.761Z,16.90
2019-02-28T11:06:08.869Z,17.20
2019-02-28T11:08:56.469Z,17.80
2019-02-28T11:11:45.663Z,19.00
2019-02-28T11:14:35.504Z,18.60
2019-02-28T11:17:24.228Z,18.30
2019-02-28T11:20:21.824Z,17.90
2019-02-28T11:23:02.934Z,18.20
2019-02-28T11:25:50.847Z,19.10
2019-02-28T11:28:38.809Z,18.60
2019-02-28T11:31:27.402Z,18.80
2019-02-28T11:34:15.932Z,18.40
2019-02-28T11:37:05.493Z,17.70
2019-02-28T11:39:54.344Z,16.90
2019-02-28T11:42:43.088Z,16.50
2019-02-28T11:45:31.235Z,16.80
2019-02-28T11:48:20.438Z,17.10
2019-02-28T11:51:08.577Z,16.60
2019-02-28T11:53:56.656Z,16.10
2019-02-28T11:56:45.269Z,15.70
2019-02-28T11:59:33.335Z,15.50
2019-02-28T12:02:22.071Z,15.60
2019-02-28T12:05:12.346Z,15.70
2019-02-28T12:08:00.419Z,15.30
2019-02-28T12:10:48.299Z,15.10
2019-02-28T12:13:36.633Z,15.10
2019-02-28T12:16:25.013Z,15.10
2019-02-28T12:19:15.919Z,15.60
2019-02-28T12:22:03.894Z,16.30
2019-02-28T12:24:52.519Z,17.10
2019-02-28T12:27:40.306Z,17.60
2019-02-28T12:30:29.187Z,17.90
2019-02-28T12:33:18.713Z,19.20
2019-02-28T12:36:08.151Z,19.30
2019-02-28T12:38:59.408Z,20.30
2019-02-28T12:41:46.176Z,20.60
2019-02-28T12:44:33.843Z,20.00
2019-02-28T12:47:22.426Z,20.00
2019-02-28T12:50:10.836Z,20.50
2019-02-28T12:52:58.732Z,22.30
2019-02-28T12:55:46.552Z,23.70
2019-02-28T12:58:38.615Z,22.60
2019-02-28T13:01:23.882Z,20.90
2019-02-28T13:04:12.191Z,22.00
2019-02-28T13:07:00.505Z,22.10
2019-02-28T13:09:51.479Z,22.30
2019-02-28T13:12:39.567Z,20.80
2019-02-28T13:15:27.568Z,20.40
2019-02-28T13:18:16.172Z,19.80
2019-02-28T13:21:06.186Z,20.50
2019-02-28T13:23:54.990Z,20.10
2019-02-28T13:26:44.011Z,19.90
2019-02-28T13:29:33.833Z,20.00
2019-02-28T13:32:22.029Z,20.50
2019-02-28T13:35:13.026Z,21.20
2019-02-28T13:38:01.055Z,20.80
2019-02-28T13:40:49.912Z,20.50
2019-02-28T13:43:38.360Z,20.00
2019-02-28T13:46:32.338Z,20.40
2019-02-28T13:49:16.440Z,20.20
2019-02-28T13:52:06.048Z,20.50
2019-02-28T13:54:54.075Z,20.50
2019-02-28T13:57:43.722Z,20.40
2019-02-28T14:00:32.221Z,20.20
2019-02-28T14:03:19.963Z,19.70
2019-02-28T14:06:08.233Z,19.30
2019-02-28T14:08:56.419Z,19.80
2019-02-28T14:11:45.064Z,19.70
2019-02-28T14:14:34.136Z,20.40
2019-02-28T14:17:23.013Z,20.10
2019-02-28T14:20:10.759Z,19.70
2019-02-28T14:22:59.751Z,19.90
2019-02-28T14:25:47.795Z,18.90
2019-02-28T14:28:36.588Z,17.90
2019-02-28T14:31:24.408Z,17.90
2019-02-28T14:34:12.013Z,18.60
2019-02-28T14:36:59.632Z,18.30
2019-02-28T14:39:47.648Z,18.70
2019-02-28T14:42:35.656Z,18.70
2019-02-28T14:45:24.353Z,17.60
2019-02-28T14:48:13.269Z,17.10
2019-02-28T14:51:01.408Z,16.60
2019-02-28T14:53:50.102Z,16.10
2019-02-28T14:56:39.581Z,15.80
2019-02-28T14:59:28.556Z,15.40
2019-02-28T15:02:18.245Z,15.20
2019-02-28T15:05:08.716Z,15.10
2019-02-28T15:07:57.997Z,14.90
2019-02-28T15:10:47.212Z,14.80
2019-02-28T15:13:35.537Z,14.70
2019-02-28T15:16:26.654Z,14.30
2019-02-28T15:19:13.915Z,14.00
2019-02-28T15:22:02.600Z,13.60
2019-02-28T15:24:50.964Z,13.20
2019-02-28T15:27:39.817Z,13.00
2019-02-28T15:30:30.425Z,12.90
2019-02-28T15:33:19.651Z,12.80
2019-02-28T15:36:08.127Z,12.70
2019-02-28T15:38:56.831Z,12.50
2019-02-28T15:41:45.279Z,12.50
2019-02-28T15:44:34.073Z,12.50
2019-02-28T15:47:23.154Z,12.40
2019-02-28T15:50:13.634Z,12.30
2019-02-28T15:53:03.720Z,12.20
2019-02-28T15:55:52.312Z,12.20
2019-02-28T15:58:41.464Z,12.20
2019-02-28T16:01:32.363Z,12.20
2019-02-28T16:04:20.243Z,12.10
2019-02-28T16:07:09.774Z,12.10
2019-02-28T16:09:58.352Z,12.10
2019-02-28T16:12:49.895Z,12.00
2019-02-28T16:15:36.933Z,12.10
2019-02-28T16:18:24.975Z,12.10
2019-02-28T16:21:14.080Z,12.20
2019-02-28T16:24:05.072Z,12.10
2019-02-28T16:26:53.520Z,12.10
2019-02-28T16:29:42.391Z,12.10
2019-02-28T16:32:30.561Z,12.10
2019-02-28T16:35:19.485Z,12.10
2019-02-28T16:38:10.119Z,12.10
2019-02-28T16:41:00.374Z,12.10
2019-02-28T16:43:47.452Z,12.10
2019-02-28T16:46:35.700Z,12.10
2019-02-28T16:49:24.529Z,12.10
2019-02-28T16:52:12.484Z,12.10
2019-02-28T16:55:00.624Z,12.10
2019-02-28T16:57:48.764Z,12.10
2019-02-28T17:00:39.621Z,12.10
2019-02-28T17:03:26.346Z,12.10
2019-02-28T17:06:15.010Z,12.00
2019-02-28T17:09:14.551Z,12.00
2019-02-28T17:12:27.244Z,12.00
2019-02-28T17:15:23.225Z,12.00
2019-02-28T17:18:14.204Z,12.00
2019-02-28T17:21:01.877Z,12.00
2019-02-28T17:23:50.461Z,12.00
2019-02-28T17:27:12.835Z,12.00
2019-02-28T17:30:16.588Z,12.00
2019-02-28T17:33:05.871Z,12.00
2019-02-28T17:35:55.431Z,12.00
2019-02-28T17:38:43.837Z,12.00
2019-02-28T17:41:33.984Z,12.00
2019-02-28T17:44:58.468Z,12.10
2019-02-28T17:48:15.439Z,12.10
2019-02-28T17:51:18.383Z,12.10
2019-02-28T17:54:40.842Z,12.10
2019-02-28T17:57:35.571Z,12.10
2019-02-28T18:01:28.715Z,12.20
2019-02-28T18:04:42.773Z,12.20
2019-02-28T18:08:09.349Z,12.20
2019-02-28T18:11:27.163Z,12.10
2019-02-28T18:14:34.188Z,12.20
2019-02-28T18:18:08.949Z,12.20
2019-02-28T18:21:32.687Z,12.20
2019-02-28T18:24:34.882Z,12.20
2019-02-28T18:27:55.615Z,12.20
2019-02-28T18:31:15.151Z,12.30
2019-02-28T18:34:27.011Z,12.30
2019-02-28T18:37:15.921Z,12.20
2019-02-28T18:40:04.487Z,12.20
2019-02-28T18:42:53.183Z,12.20
2019-02-28T18:45:41.059Z,12.20
2019-02-28T18:48:29.667Z,12.20
2019-02-28T18:51:17.639Z,12.20
2019-02-28T18:54:05.705Z,12.10
2019-02-28T18:56:53.679Z,12.10
2019-02-28T18:59:41.935Z,12.10
2019-02-28T19:02:29.687Z,12.10
2019-02-28T19:05:17.364Z,12.10
2019-02-28T19:08:05.531Z,12.10
2019-02-28T19:10:54.995Z,12.10
2019-02-28T19:13:43.867Z,12.10
2019-02-28T19:16:31.726Z,12.00
2019-02-28T19:19:20.248Z,12.00
2019-02-28T19:22:08.331Z,12.00
2019-02-28T19:24:55.875Z,12.00
2019-02-28T19:27:44.454Z,12.00
2019-02-28T19:30:32.718Z,12.00
2019-02-28T19:33:21.528Z,12.00
2019-02-28T19:36:09.423Z,12.00
2019-02-28T19:38:58.157Z,12.00
2019-02-28T19:41:46.458Z,11.90
2019-02-28T19:44:35.222Z,11.90
2019-02-28T19:47:23.050Z,11.80
2019-02-28T19:50:11.506Z,11.80
2019-02-28T19:52:59.303Z,11.70
2019-02-28T19:55:48.042Z,11.70
2019-02-28T19:58:36.577Z,11.60
2019-02-28T20:01:24.967Z,11.60
2019-02-28T20:04:13.288Z,11.60
2019-02-28T20:07:01.835Z,11.60
2019-02-28T20:09:51.201Z,11.60
2019-02-28T20:12:39.409Z,11.60
2019-02-28T20:15:30.359Z,11.60
2019-02-28T20:18:18.124Z,11.60
2019-02-28T20:21:06.590Z,11.70
2019-02-28T20:23:55.085Z,11.70
2019-02-28T20:26:44.053Z,11.70
2019-02-28T20:29:32.357Z,11.70
2019-02-28T20:32:20.322Z,11.70
2019-02-28T20:35:08.775Z,11.60
2019-02-28T20:37:56.933Z,11.60
2019-02-28T20:40:44.936Z,11.60
2019-02-28T20:43:32.414Z,11.60
2019-02-28T20:46:20.052Z,11.50
2019-02-28T20:49:08.524Z,11.50
2019-02-28T20:51:57.278Z,11.50
2019-02-28T20:54:45.327Z,11.40
2019-02-28T20:57:33.722Z,11.50
2019-02-28T21:00:24.046Z,11.50
2019-02-28T21:03:12.380Z,11.50
2019-02-28T21:06:00.878Z,11.50
2019-02-28T21:08:49.323Z,11.40
2019-02-28T21:11:37.206Z,11.40
2019-02-28T21:14:25.707Z,11.30
2019-02-28T21:17:14.203Z,11.20
2019-02-28T21:20:02.436Z,11.20
2019-02-28T21:22:50.084Z,11.20
2019-02-28T21:25:38.746Z,11.20
2019-02-28T21:28:27.543Z,11.10
2019-02-28T21:31:15.643Z,11.20
2019-02-28T21:34:03.636Z,11.30
2019-02-28T21:36:51.942Z,11.30
2019-02-28T21:39:39.591Z,11.30
2019-02-28T21:42:28.071Z,11.20
2019-02-28T21:45:17.366Z,11.20
2019-02-28T21:48:05.651Z,11.10
2019-02-28T21:50:54.723Z,11.00
2019-02-28T21:53:43.315Z,10.90
2019-02-28T21:56:31.337Z,10.90
2019-02-28T21:59:19.468Z,10.90
2019-02-28T22:02:07.631Z,10.90
2019-02-28T22:04:56.139Z,10.90
2019-02-28T22:07:44.624Z,10.90
2019-02-28T22:10:33.064Z,10.90
2019-02-28T22:13:21.483Z,10.90
2019-02-28T22:16:09.746Z,11.00
2019-02-28T22:18:58.296Z,11.00
2019-02-28T22:21:46.787Z,11.00
2019-02-28T22:24:34.433Z,11.00
2019-02-28T22:27:22.703Z,10.90
2019-02-28T22:30:32.356Z,11.00
2019-02-28T22:33:36.380Z,11.00
2019-02-28T22:36:39.683Z,11.00
2019-02-28T22:39:27.744Z,11.00
2019-02-28T22:42:21.988Z,11.00
2019-02-28T22:45:05.698Z,11.00
2019-02-28T22:47:53.630Z,11.00
2019-02-28T22:50:42.103Z,10.90
2019-02-28T22:53:30.084Z,10.80
2019-02-28T22:56:18.784Z,10.80
2019-02-28T22:59:07.151Z,10.70
2019-02-28T23:01:55.952Z,10.60
2019-02-28T23:04:44.479Z,10.70
2019-02-28T23:07:32.912Z,10.60
2019-02-28T23:10:21.171Z,10.70
2019-02-28T23:13:09.420Z,10.70
2019-02-28T23:15:57.880Z,10.70
2019-02-28T23:18:45.643Z,10.70
2019-02-28T23:21:34.155Z,10.70
2019-02-28T23:24:22.288Z,10.70
2019-02-28T23:27:18.104Z,10.70
2019-02-28T23:30:34.839Z,10.70
2019-02-28T23:33:23.318Z,10.70
2019-02-28T23:36:11.771Z,10.70
2019-02-28T23:39:00.237Z,10.70
2019-02-28T23:41:48.551Z,10.60
2019-02-28T23:44:36.116Z,10.60
2019-02-28T23:47:24.747Z,10.70
2019-02-28T23:50:12.671Z,10.70
2019-02-28T23:53:01.510Z,10.60
2019-02-28T23:55:50.178Z,10.70
2019-02-28T23:58:37.983Z,10.70
